Time;durP1;ratioP1;P1;durP2;ratioP2;P2;SDS_P1;SDS_P2;PMS_P1;PMS_P2;Temp;Humidity;BMP_temperature;BMP_pressure;BME280_temperature;BME280_humidity;BME280_pressure;Samples;Min_cycle;Max_cycle;Signal;HPM_P1;HPM_P2
2023/05/11 00:00:08;;;;;;;6.45;3.45;;;12.50;99.90;;;;;;5034095;28;20056;-36
2023/05/11 00:02:35;;;;;;;7.22;3.85;;;12.40;99.90;;;;;;5035479;28;20525;-36
2023/05/11 00:05:00;;;;;;;7.57;4.15;;;12.40;99.90;;;;;;5031673;28;20049;-36
2023/05/11 00:07:26;;;;;;;6.55;3.60;;;12.50;99.90;;;;;;5036371;28;20462;-36
2023/05/11 00:09:52;;;;;;;6.45;3.75;;;12.50;99.90;;;;;;5035846;28;20055;-36
2023/05/11 00:12:17;;;;;;;7.85;4.30;;;12.50;99.90;;;;;;5033935;28;20064;-36
2023/05/11 00:14:43;;;;;;;8.93;4.70;;;12.50;99.90;;;;;;5042925;28;20110;-36
2023/05/11 00:17:10;;;;;;;7.97;4.65;;;12.50;99.90;;;;;;5033765;28;20124;-36
2023/05/11 00:19:36;;;;;;;7.80;4.40;;;12.50;99.90;;;;;;5029472;28;20061;-36
2023/05/11 00:22:02;;;;;;;8.43;4.20;;;12.50;99.90;;;;;;5033358;28;20049;-36
2023/05/11 00:24:28;;;;;;;7.90;4.90;;;12.60;99.90;;;;;;5034386;28;20052;-36
2023/05/11 00:26:54;;;;;;;9.45;4.78;;;12.50;99.90;;;;;;5033878;28;20061;-36
2023/05/11 00:29:20;;;;;;;7.72;4.57;;;12.60;99.90;;;;;;5037567;28;20457;-36
2023/05/11 00:31:49;;;;;;;7.57;3.60;;;12.50;99.90;;;;;;5036908;28;20057;-36
2023/05/11 00:34:16;;;;;;;7.03;3.70;;;12.50;99.90;;;;;;5034242;28;20049;-36
2023/05/11 00:36:42;;;;;;;7.13;3.97;;;12.50;99.90;;;;;;5030892;28;20062;-36
2023/05/11 00:39:10;;;;;;;8.20;4.72;;;12.50;99.90;;;;;;5032175;28;20415;-36
2023/05/11 00:41:36;;;;;;;6.03;3.65;;;12.50;99.90;;;;;;5033110;28;20057;-36
2023/05/11 00:44:02;;;;;;;7.05;3.90;;;12.50;99.90;;;;;;5034599;28;20461;-36
2023/05/11 00:46:27;;;;;;;7.22;4.32;;;12.50;99.90;;;;;;5032938;28;20057;-36
2023/05/11 00:48:53;;;;;;;6.43;3.65;;;12.50;99.90;;;;;;5034653;28;21057;-37
2023/05/11 00:51:20;;;;;;;6.40;3.88;;;12.50;99.90;;;;;;5035101;28;20081;-35
2023/05/11 00:53:47;;;;;;;7.78;5.00;;;12.50;99.90;;;;;;5033844;28;20063;-36
2023/05/11 00:56:12;;;;;;;7.55;4.40;;;12.50;99.90;;;;;;5036520;28;20132;-36
2023/05/11 00:58:38;;;;;;;6.85;3.95;;;12.50;99.90;;;;;;5030013;28;20053;-36
2023/05/11 01:01:04;;;;;;;8.10;4.78;;;12.50;99.90;;;;;;5034467;28;20073;-36
2023/05/11 01:03:31;;;;;;;6.93;3.65;;;12.40;99.90;;;;;;5035052;28;20068;-36
2023/05/11 01:06:10;;;;;;;6.20;3.50;;;12.50;99.90;;;;;;5033240;28;20049;-36
2023/05/11 01:08:45;;;;;;;7.65;4.75;;;12.50;99.90;;;;;;5034812;28;20132;-36
2023/05/11 01:11:24;;;;;;;6.75;4.05;;;12.50;99.90;;;;;;5031796;28;20088;-36
2023/05/11 01:14:14;;;;;;;6.45;3.63;;;12.50;99.90;;;;;;5032349;28;20045;-36
2023/05/11 01:16:46;;;;;;;8.23;3.88;;;12.50;99.90;;;;;;5034249;28;20119;-36
2023/05/11 01:19:34;;;;;;;6.75;3.78;;;12.50;99.90;;;;;;5035104;28;20521;-36
2023/05/11 01:22:09;;;;;;;7.57;4.28;;;12.50;99.90;;;;;;5030641;28;20529;-36
2023/05/11 01:24:43;;;;;;;8.40;4.43;;;12.50;99.90;;;;;;5037977;28;20053;-36
2023/05/11 01:27:31;;;;;;;9.13;4.03;;;12.50;99.90;;;;;;5028629;28;20060;-36
2023/05/11 01:30:34;;;;;;;7.95;4.15;;;12.50;99.90;;;;;;5031938;28;20132;-36
2023/05/11 01:33:04;;;;;;;;;;;12.50;99.90;;;;;;5018767;28;20058;-37
2023/05/11 01:35:33;;;;;;;8.65;4.63;;;12.50;99.90;;;;;;5024211;28;20398;-36
2023/05/11 01:38:02;;;;;;;9.98;4.72;;;12.50;99.90;;;;;;5034818;28;20398;-37
2023/05/11 01:40:32;;;;;;;8.02;4.88;;;12.50;99.90;;;;;;5014539;28;20095;-36
2023/05/11 01:43:04;;;;;;;10.07;4.75;;;12.50;99.90;;;;;;5019765;28;20065;-36
2023/05/11 01:45:34;;;;;;;7.68;4.55;;;12.50;99.90;;;;;;5035220;28;20049;-36
2023/05/11 01:48:04;;;;;;;8.38;4.80;;;12.50;99.90;;;;;;5040134;28;20064;-36
2023/05/11 01:50:32;;;;;;;9.27;5.35;;;12.50;99.90;;;;;;5016464;28;20099;-36
2023/05/11 01:52:58;;;;;;;8.88;4.72;;;12.50;99.90;;;;;;5015873;28;20045;-36
2023/05/11 01:55:25;;;;;;;8.77;4.82;;;12.40;99.90;;;;;;5030806;28;20195;-36
2023/05/11 01:57:53;;;;;;;12.95;5.05;;;12.50;99.90;;;;;;5023486;28;20041;-36
2023/05/11 02:00:20;;;;;;;9.65;5.43;;;12.50;99.90;;;;;;5023716;28;20111;-36
2023/05/11 02:02:47;;;;;;;6.35;3.72;;;12.50;99.90;;;;;;5013316;28;20064;-36
2023/05/11 02:05:20;;;;;;;9.52;4.70;;;12.50;99.90;;;;;;5032750;28;20426;-36
2023/05/11 02:07:48;;;;;;;9.73;5.63;;;12.50;99.90;;;;;;5032189;28;20112;-36
2023/05/11 02:10:15;;;;;;;8.65;4.82;;;12.50;99.90;;;;;;5022000;28;20057;-36
2023/05/11 02:12:43;;;;;;;8.95;5.40;;;12.50;99.90;;;;;;5025052;28;20047;-36
2023/05/11 02:15:10;;;;;;;8.02;4.40;;;12.40;99.90;;;;;;5034305;28;20056;-36
2023/05/11 02:17:38;;;;;;;8.55;5.20;;;12.40;99.90;;;;;;5021809;28;20049;-36
2023/05/11 02:20:06;;;;;;;8.82;5.30;;;12.50;99.90;;;;;;5025990;28;20090;-37
2023/05/11 02:22:33;;;;;;;9.35;5.07;;;12.40;99.90;;;;;;5031312;28;20059;-36
2023/05/11 02:24:59;;;;;;;8.77;5.60;;;12.40;99.90;;;;;;5016221;28;20427;-36
2023/05/11 02:27:25;;;;;;;8.35;5.20;;;12.40;99.90;;;;;;5038675;28;20056;-36
2023/05/11 02:29:50;;;;;;;9.73;5.35;;;12.40;99.90;;;;;;5037717;28;20040;-37
2023/05/11 02:32:18;;;;;;;10.57;5.85;;;12.40;99.90;;;;;;5026599;28;20115;-36
2023/05/11 02:34:58;;;;;;;8.15;4.85;;;12.40;99.90;;;;;;5010379;28;20056;-36
2023/05/11 02:37:26;;;;;;;10.35;5.43;;;12.30;99.90;;;;;;5019104;28;20320;-36
2023/05/11 02:39:58;;;;;;;9.52;5.35;;;12.30;99.90;;;;;;5022259;28;20049;-36
2023/05/11 02:42:26;;;;;;;8.35;4.93;;;12.30;99.90;;;;;;5039277;28;20140;-36
2023/05/11 02:45:04;;;;;;;10.43;6.10;;;12.30;99.90;;;;;;5037429;28;20052;-37
2023/05/11 02:47:35;;;;;;;8.95;4.85;;;12.30;99.90;;;;;;5032659;28;20167;-36
2023/05/11 02:50:03;;;;;;;11.45;4.93;;;12.30;99.90;;;;;;5019135;28;21404;-37
2023/05/11 02:52:31;;;;;;;10.82;5.78;;;12.30;99.90;;;;;;5038406;28;20115;-36
2023/05/11 02:55:00;;;;;;;14.10;6.85;;;12.30;99.90;;;;;;5019570;28;20045;-36
2023/05/11 02:57:26;;;;;;;9.27;5.20;;;12.40;99.90;;;;;;5016956;28;20061;-36
2023/05/11 02:59:52;;;;;;;8.30;5.03;;;12.30;99.90;;;;;;5018793;28;20573;-37
2023/05/11 03:02:18;;;;;;;11.13;6.25;;;12.40;99.90;;;;;;5037100;28;20056;-36
2023/05/11 03:04:44;;;;;;;9.05;5.72;;;12.40;99.90;;;;;;5037653;28;20415;-36
2023/05/11 03:07:10;;;;;;;9.90;5.57;;;12.30;99.90;;;;;;5027318;28;20202;-36
2023/05/11 03:09:36;;;;;;;9.88;5.32;;;12.30;99.90;;;;;;5013592;28;20057;-36
2023/05/11 03:12:02;;;;;;;8.57;4.85;;;12.30;99.90;;;;;;5033469;28;20045;-36
2023/05/11 03:14:30;;;;;;;13.25;6.95;;;12.30;99.90;;;;;;5035364;28;20511;-37
2023/05/11 03:16:57;;;;;;;12.00;5.57;;;12.30;99.90;;;;;;5023223;28;20102;-36
2023/05/11 03:19:23;;;;;;;15.30;7.03;;;12.30;99.90;;;;;;5025682;28;20148;-36
2023/05/11 03:21:52;;;;;;;13.27;6.00;;;12.30;99.90;;;;;;5016227;28;20499;-37
2023/05/11 03:24:18;;;;;;;11.32;6.50;;;12.30;99.90;;;;;;5013010;28;20140;-36
2023/05/11 03:26:44;;;;;;;9.55;4.90;;;12.40;99.90;;;;;;5026962;28;20065;-37
2023/05/11 03:29:13;;;;;;;11.30;5.82;;;12.40;99.90;;;;;;5015400;28;20420;-36
2023/05/11 03:31:39;;;;;;;10.55;6.25;;;12.40;99.90;;;;;;5020212;28;20061;-36
2023/05/11 03:34:04;;;;;;;10.05;5.32;;;12.40;99.90;;;;;;5011876;28;20085;-37
2023/05/11 03:36:32;;;;;;;11.77;6.28;;;12.40;99.90;;;;;;5021968;28;20069;-36
2023/05/11 03:38:58;;;;;;;9.20;5.32;;;12.30;99.90;;;;;;5034606;28;20061;-36
2023/05/11 03:41:28;;;;;;;10.50;5.68;;;12.30;99.90;;;;;;5021855;28;20095;-37
2023/05/11 03:43:56;;;;;;;12.30;6.70;;;12.30;99.90;;;;;;5031921;28;20051;-36
2023/05/11 03:46:23;;;;;;;9.88;5.85;;;12.30;99.90;;;;;;5023141;28;20050;-37
2023/05/11 03:48:50;;;;;;;10.32;6.20;;;12.30;99.90;;;;;;5019416;28;20047;-36
2023/05/11 03:51:16;;;;;;;9.95;6.15;;;12.30;99.90;;;;;;5032163;28;20045;-36
2023/05/11 03:53:41;;;;;;;11.65;6.47;;;12.30;99.90;;;;;;5032897;28;20056;-36
2023/05/11 03:56:07;;;;;;;10.60;6.05;;;12.30;99.90;;;;;;5027643;28;20423;-36
2023/05/11 03:58:38;;;;;;;11.52;6.68;;;12.30;99.90;;;;;;5026673;28;20380;-36
2023/05/11 04:01:05;;;;;;;10.38;6.13;;;12.30;99.90;;;;;;5028535;28;20128;-36
2023/05/11 04:03:30;;;;;;;11.23;6.03;;;12.20;99.90;;;;;;5027496;28;20118;-36
2023/05/11 04:05:56;;;;;;;18.35;6.10;;;12.20;99.90;;;;;;5030078;28;20084;-36
2023/05/11 04:08:22;;;;;;;10.48;5.75;;;12.20;99.90;;;;;;5026316;28;20057;-36
2023/05/11 04:10:47;;;;;;;9.77;5.65;;;12.20;99.90;;;;;;5027709;28;20454;-36
2023/05/11 04:13:13;;;;;;;11.07;6.40;;;12.20;99.90;;;;;;5030712;28;20144;-36
2023/05/11 04:15:38;;;;;;;11.13;5.60;;;12.20;99.90;;;;;;5032963;28;20498;-36
2023/05/11 04:18:04;;;;;;;11.27;6.25;;;12.20;99.90;;;;;;5034284;28;20044;-36
2023/05/11 04:20:30;;;;;;;10.88;5.78;;;12.20;99.90;;;;;;5030241;28;20132;-36
2023/05/11 04:22:55;;;;;;;12.32;6.47;;;12.20;99.90;;;;;;5037950;28;20044;-37
2023/05/11 04:25:21;;;;;;;10.02;5.78;;;12.10;99.90;;;;;;5032106;28;20063;-36
2023/05/11 04:27:47;;;;;;;11.55;6.25;;;12.10;99.90;;;;;;5029219;28;20061;-37
2023/05/11 04:30:13;;;;;;;10.60;5.35;;;12.10;99.90;;;;;;5033851;28;20136;-36
2023/05/11 04:32:38;;;;;;;8.93;4.75;;;12.20;99.90;;;;;;5031179;28;20042;-36
2023/05/11 04:35:04;;;;;;;11.27;5.95;;;12.20;99.90;;;;;;5031887;28;20426;-36
2023/05/11 04:37:30;;;;;;;10.02;5.45;;;12.20;99.90;;;;;;5030888;28;20054;-36
2023/05/11 04:39:56;;;;;;;10.40;5.72;;;12.20;99.90;;;;;;5032868;28;20556;-37
2023/05/11 04:42:22;;;;;;;11.27;5.75;;;12.20;99.90;;;;;;5035038;28;20123;-36
2023/05/11 04:44:47;;;;;;;10.75;5.45;;;12.20;99.90;;;;;;5030570;28;20065;-36
2023/05/11 04:47:14;;;;;;;11.23;6.03;;;12.30;99.90;;;;;;5032026;28;20062;-36
2023/05/11 04:49:39;;;;;;;9.50;4.78;;;12.30;99.90;;;;;;5036021;28;20136;-37
2023/05/11 04:52:05;;;;;;;9.18;5.05;;;12.30;99.90;;;;;;5033505;28;20131;-36
2023/05/11 04:54:31;;;;;;;9.43;5.28;;;12.30;99.90;;;;;;5030340;28;20136;-36
2023/05/11 04:56:56;;;;;;;9.95;5.88;;;12.30;99.90;;;;;;5034442;28;20057;-36
2023/05/11 04:59:22;;;;;;;10.05;4.93;;;12.30;99.90;;;;;;5028618;28;20451;-36
2023/05/11 05:01:47;;;;;;;9.70;5.15;;;12.30;99.90;;;;;;5036574;28;20059;-36
2023/05/11 05:04:13;;;;;;;9.40;4.88;;;12.30;99.90;;;;;;5031639;28;20794;-36
2023/05/11 05:06:39;;;;;;;9.82;4.88;;;12.30;99.90;;;;;;5029440;28;20045;-36
2023/05/11 05:09:04;;;;;;;9.98;5.50;;;12.30;99.90;;;;;;5029231;28;20049;-37
2023/05/11 05:11:31;;;;;;;8.75;4.20;;;12.30;99.90;;;;;;5033043;28;20041;-36
2023/05/11 05:13:56;;;;;;;9.80;5.18;;;12.30;99.90;;;;;;5030620;28;20045;-37
2023/05/11 05:16:22;;;;;;;9.50;4.90;;;12.20;99.90;;;;;;5031608;28;20045;-36
2023/05/11 05:18:47;;;;;;;10.32;6.10;;;12.20;99.90;;;;;;5033838;28;21830;-37
2023/05/11 05:21:13;;;;;;;9.93;4.70;;;12.20;99.90;;;;;;5035438;28;20072;-37
2023/05/11 05:23:39;;;;;;;9.20;5.45;;;12.20;99.90;;;;;;5030926;28;20080;-37
2023/05/11 05:26:04;;;;;;;9.15;5.25;;;12.30;99.90;;;;;;5031426;28;20045;-37
2023/05/11 05:28:30;;;;;;;9.85;5.03;;;12.30;99.90;;;;;;5037822;28;20061;-37
2023/05/11 05:30:56;;;;;;;9.25;4.60;;;12.30;99.90;;;;;;5034953;28;20064;-37
2023/05/11 05:33:22;;;;;;;9.90;5.22;;;12.30;99.90;;;;;;5027501;28;20128;-37
2023/05/11 05:35:48;;;;;;;11.05;5.18;;;12.30;99.90;;;;;;5035076;28;20140;-37
2023/05/11 05:38:13;;;;;;;8.55;4.22;;;12.20;99.90;;;;;;5036443;28;20048;-37
2023/05/11 05:40:39;;;;;;;7.80;4.32;;;12.20;99.90;;;;;;5025540;28;20057;-36
2023/05/11 05:43:05;;;;;;;8.48;4.45;;;12.20;99.90;;;;;;5031157;28;20491;-36
2023/05/11 05:45:31;;;;;;;10.00;5.18;;;12.20;99.90;;;;;;5024273;28;20065;-36
2023/05/11 05:47:59;;;;;;;12.15;5.63;;;12.20;99.90;;;;;;5028879;28;20061;-36
2023/05/11 05:50:25;;;;;;;9.00;4.93;;;12.20;99.90;;;;;;5034844;28;20048;-38
2023/05/11 05:52:50;;;;;;;9.15;4.72;;;12.10;99.90;;;;;;5031421;28;20106;-37
2023/05/11 05:55:16;;;;;;;7.55;3.67;;;12.20;99.90;;;;;;5027754;28;20061;-38
2023/05/11 05:57:42;;;;;;;10.30;5.38;;;12.20;99.90;;;;;;5031560;28;20154;-38
2023/05/11 06:00:08;;;;;;;8.98;4.95;;;12.20;99.90;;;;;;5028002;28;20046;-38
2023/05/11 06:02:34;;;;;;;8.60;4.57;;;12.20;99.90;;;;;;5033803;28;20510;-38
2023/05/11 06:05:00;;;;;;;7.93;4.30;;;12.20;99.90;;;;;;5033820;28;20049;-38
2023/05/11 06:07:25;;;;;;;9.55;4.55;;;12.20;99.90;;;;;;5027297;28;20049;-37
2023/05/11 06:09:51;;;;;;;6.65;3.60;;;12.20;99.90;;;;;;5028425;28;20092;-38
2023/05/11 06:12:17;;;;;;;6.88;3.15;;;12.20;99.90;;;;;;5034209;28;20132;-37
2023/05/11 06:14:42;;;;;;;6.72;3.20;;;12.20;99.90;;;;;;5032614;28;20045;-38
2023/05/11 06:17:08;;;;;;;6.32;3.15;;;12.20;99.90;;;;;;5028684;28;20584;-37
2023/05/11 06:19:34;;;;;;;5.38;2.63;;;12.20;99.90;;;;;;5032124;28;20079;-38
2023/05/11 06:21:59;;;;;;;6.93;2.25;;;12.20;99.90;;;;;;5034389;28;20581;-38
2023/05/11 06:24:25;;;;;;;4.75;2.22;;;12.20;99.90;;;;;;5031043;28;20049;-37
2023/05/11 06:26:51;;;;;;;2.97;1.25;;;12.20;99.90;;;;;;5033089;28;20053;-38
2023/05/11 06:29:18;;;;;;;3.70;1.73;;;12.20;99.90;;;;;;5029634;28;20053;-38
2023/05/11 06:31:43;;;;;;;6.85;1.42;;;12.30;99.90;;;;;;5028800;28;20139;-38
2023/05/11 06:34:09;;;;;;;3.63;1.60;;;12.30;99.90;;;;;;5029342;28;20478;-38
2023/05/11 06:36:35;;;;;;;3.03;1.27;;;12.30;99.90;;;;;;5025729;28;20045;-38
2023/05/11 06:39:00;;;;;;;3.40;1.60;;;12.30;99.90;;;;;;5031326;28;21735;-38
2023/05/11 06:41:26;;;;;;;3.92;1.83;;;12.40;99.90;;;;;;5029948;28;20387;-38
2023/05/11 06:43:52;;;;;;;4.43;2.20;;;12.40;99.90;;;;;;5023248;28;20053;-38
2023/05/11 06:46:17;;;;;;;6.18;2.25;;;12.40;99.90;;;;;;5032971;28;20377;-38
2023/05/11 06:48:43;;;;;;;5.90;2.60;;;12.40;99.90;;;;;;5028650;28;20060;-38
2023/05/11 06:51:10;;;;;;;6.72;2.78;;;12.30;99.90;;;;;;5031716;28;20045;-38
2023/05/11 06:53:36;;;;;;;8.43;3.13;;;12.30;99.90;;;;;;5031671;28;20569;-38
2023/05/11 06:56:02;;;;;;;5.05;2.67;;;12.30;99.90;;;;;;5024479;28;20132;-38
2023/05/11 06:58:28;;;;;;;5.15;2.03;;;12.30;99.90;;;;;;5030065;28;20175;-38
2023/05/11 07:00:54;;;;;;;5.40;2.65;;;12.30;99.90;;;;;;5032077;28;20053;-38
2023/05/11 07:03:19;;;;;;;5.55;2.15;;;12.30;99.90;;;;;;5033213;28;20049;-38
2023/05/11 07:05:45;;;;;;;3.67;1.77;;;12.30;99.90;;;;;;5030560;28;20068;-37
2023/05/11 07:08:10;;;;;;;4.18;1.88;;;12.40;99.90;;;;;;5028731;28;20119;-37
2023/05/11 07:10:37;;;;;;;5.93;2.30;;;12.40;99.90;;;;;;5023866;28;20393;-38
2023/05/11 07:13:04;;;;;;;4.65;1.85;;;12.40;99.90;;;;;;5027038;28;20227;-38
2023/05/11 07:15:30;;;;;;;5.57;2.42;;;12.40;99.90;;;;;;5035785;28;20099;-38
2023/05/11 07:17:55;;;;;;;5.00;2.50;;;12.40;99.90;;;;;;5030064;28;20057;-38
2023/05/11 07:20:21;;;;;;;5.40;2.25;;;12.40;99.90;;;;;;5028747;28;20045;-38
2023/05/11 07:22:47;;;;;;;4.32;2.03;;;12.40;99.90;;;;;;5034211;28;20053;-38
2023/05/11 07:25:13;;;;;;;4.53;2.10;;;12.50;99.90;;;;;;5028126;28;20530;-38
2023/05/11 07:27:38;;;;;;;3.92;1.40;;;12.50;99.90;;;;;;5026296;28;20053;-37
2023/05/11 07:30:05;;;;;;;4.30;1.52;;;12.60;99.90;;;;;;5034043;28;20552;-38
2023/05/11 07:32:31;;;;;;;2.72;1.10;;;12.70;99.90;;;;;;5030595;28;20054;-38
2023/05/11 07:34:57;;;;;;;4.38;1.10;;;12.80;99.90;;;;;;5036335;28;20056;-38
2023/05/11 07:37:22;;;;;;;3.70;1.20;;;12.90;99.90;;;;;;5038842;28;20053;-38
2023/05/11 07:39:48;;;;;;;4.32;1.10;;;13.00;99.90;;;;;;5030616;28;20057;-37
2023/05/11 07:42:14;;;;;;;4.57;0.90;;;13.10;99.90;;;;;;5034571;28;20135;-38
2023/05/11 07:44:39;;;;;;;4.35;1.33;;;13.30;99.90;;;;;;5033585;28;20057;-37
2023/05/11 07:47:05;;;;;;;1.95;0.88;;;13.40;99.90;;;;;;5032430;28;20506;-38
2023/05/11 07:49:31;;;;;;;1.52;0.50;;;13.50;99.90;;;;;;5039349;28;20049;-38
2023/05/11 07:51:57;;;;;;;2.92;0.88;;;13.60;99.90;;;;;;5033841;28;20111;-37
2023/05/11 07:54:22;;;;;;;1.27;0.50;;;13.70;99.90;;;;;;5034819;28;20049;-38
2023/05/11 07:56:48;;;;;;;1.92;0.60;;;13.80;99.90;;;;;;5033380;28;20053;-38
2023/05/11 07:59:14;;;;;;;2.58;0.98;;;13.90;99.90;;;;;;5039325;28;20072;-38
2023/05/11 08:01:40;;;;;;;2.10;0.70;;;14.00;99.90;;;;;;5031231;28;20052;-38
2023/05/11 08:04:05;;;;;;;2.78;0.95;;;14.00;99.90;;;;;;5031882;28;20419;-38
2023/05/11 08:06:31;;;;;;;1.65;0.80;;;14.10;99.90;;;;;;5036794;28;20038;-38
2023/05/11 08:08:57;;;;;;;1.23;0.52;;;14.20;99.90;;;;;;5033560;28;20551;-38
2023/05/11 08:11:23;;;;;;;1.80;0.85;;;14.30;99.90;;;;;;5033687;28;20496;-37
2023/05/11 08:13:48;;;;;;;1.55;0.70;;;14.40;99.90;;;;;;5035801;28;20045;-38
2023/05/11 08:16:14;;;;;;;1.13;0.43;;;14.50;99.90;;;;;;5034847;28;20065;-38
2023/05/11 08:18:40;;;;;;;4.20;0.90;;;14.50;99.90;;;;;;5034083;28;20432;-38
2023/05/11 08:21:06;;;;;;;3.92;0.98;;;14.50;99.90;;;;;;5031568;28;20054;-38
2023/05/11 08:23:32;;;;;;;2.15;0.88;;;14.60;99.90;;;;;;5041779;28;20044;-38
2023/05/11 08:25:58;;;;;;;1.55;0.70;;;14.60;99.90;;;;;;5031535;28;20415;-38
2023/05/11 08:28:24;;;;;;;3.35;1.00;;;14.60;99.90;;;;;;5036114;28;20057;-38
2023/05/11 08:30:54;;;;;;;2.30;0.80;;;14.60;99.90;;;;;;5033822;28;20167;-37
2023/05/11 08:33:19;;;;;;;2.65;1.05;;;14.70;99.90;;;;;;5036223;28;20494;-38
2023/05/11 08:35:45;;;;;;;2.17;0.80;;;14.70;99.90;;;;;;5032496;28;20123;-36
2023/05/11 08:38:12;;;;;;;2.10;0.70;;;14.70;99.90;;;;;;5035878;28;20053;-37
2023/05/11 08:40:42;;;;;;;2.13;0.70;;;14.80;99.90;;;;;;5029180;28;20059;-37
2023/05/11 08:43:09;;;;;;;1.45;0.68;;;14.70;99.90;;;;;;5031219;28;20057;-38
2023/05/11 08:45:36;;;;;;;2.10;0.50;;;14.80;99.90;;;;;;5033037;28;20048;-38
2023/05/11 08:48:03;;;;;;;1.40;0.43;;;14.80;99.90;;;;;;5032736;28;20091;-37
2023/05/11 08:50:28;;;;;;;1.00;0.30;;;14.80;99.90;;;;;;5035974;28;20097;-38
2023/05/11 08:52:54;;;;;;;1.02;0.30;;;14.80;99.90;;;;;;5034247;28;20045;-37
2023/05/11 08:55:22;;;;;;;0.70;0.20;;;14.90;99.90;;;;;;5038622;28;20049;-38
2023/05/11 08:57:50;;;;;;;1.83;0.20;;;15.00;99.90;;;;;;5032270;28;20049;-37
2023/05/11 09:00:16;;;;;;;0.55;0.30;;;15.10;99.90;;;;;;5037619;28;20061;-38
2023/05/11 09:02:42;;;;;;;1.83;0.65;;;15.20;99.90;;;;;;5033426;28;20476;-38
2023/05/11 09:05:09;;;;;;;0.82;0.30;;;15.40;99.90;;;;;;5041993;28;20065;-38
2023/05/11 09:07:37;;;;;;;0.85;0.40;;;15.50;99.90;;;;;;5035760;28;20062;-38
2023/05/11 09:10:03;;;;;;;1.08;0.30;;;15.70;99.90;;;;;;5036267;28;20060;-37
2023/05/11 09:12:29;;;;;;;0.77;0.30;;;15.80;99.90;;;;;;5035594;28;20494;-38
2023/05/11 09:14:55;;;;;;;0.75;0.30;;;16.10;99.90;;;;;;5035729;28;20073;-38
2023/05/11 09:17:24;;;;;;;1.27;0.30;;;16.30;99.90;;;;;;5035843;28;20049;-38
2023/05/11 09:20:04;;;;;;;0.93;0.45;;;16.50;99.90;;;;;;5033986;28;20045;-37
2023/05/11 09:22:32;;;;;;;1.35;0.50;;;16.60;99.90;;;;;;5028136;28;20053;-38
2023/05/11 09:25:00;;;;;;;1.92;0.45;;;16.60;99.90;;;;;;5032496;28;20052;-38
2023/05/11 09:27:26;;;;;;;2.22;0.52;;;16.60;99.90;;;;;;5030903;28;20073;-38
2023/05/11 09:29:53;;;;;;;1.85;0.57;;;16.70;99.90;;;;;;5032442;28;21990;-38
2023/05/11 09:32:18;;;;;;;1.92;0.70;;;16.80;99.90;;;;;;5034543;28;20527;-38
2023/05/11 09:34:44;;;;;;;1.10;0.50;;;16.80;99.90;;;;;;5036954;28;20145;-37
2023/05/11 09:37:16;;;;;;;2.38;0.70;;;16.90;99.90;;;;;;5024977;28;20534;-36
2023/05/11 09:39:42;;;;;;;2.05;0.80;;;16.90;99.90;;;;;;5033352;28;20115;-35
2023/05/11 09:42:19;;;;;;;1.35;0.60;;;17.00;99.90;;;;;;5032368;28;20691;-38
2023/05/11 09:44:46;;;;;;;1.60;0.70;;;17.10;99.90;;;;;;5038225;28;20041;-38
2023/05/11 09:47:18;;;;;;;2.47;0.90;;;17.10;99.90;;;;;;5032544;28;20053;-38
2023/05/11 09:49:46;;;;;;;2.05;0.90;;;17.20;99.90;;;;;;5035482;28;20143;-35
2023/05/11 09:52:13;;;;;;;2.30;0.90;;;17.30;99.90;;;;;;5030972;28;20084;-38
2023/05/11 09:54:41;;;;;;;1.77;0.80;;;17.30;99.90;;;;;;5035406;28;20541;-38
2023/05/11 09:57:25;;;;;;;2.67;0.90;;;17.40;99.90;;;;;;5036282;28;20081;-35
2023/05/11 09:59:51;;;;;;;2.17;0.90;;;17.50;99.90;;;;;;5035745;28;20565;-39
2023/05/11 10:02:27;;;;;;;2.13;0.80;;;17.50;99.90;;;;;;5048327;28;20136;-36
2023/05/11 10:04:56;;;;;;;1.40;0.70;;;17.50;99.90;;;;;;5033867;28;20144;-36
2023/05/11 10:07:28;;;;;;;0.90;0.40;;;17.50;99.90;;;;;;5032064;28;20548;-36
2023/05/11 10:09:59;;;;;;;1.45;0.60;;;17.60;99.90;;;;;;5019331;28;20384;-36
2023/05/11 10:12:26;;;;;;;1.67;0.63;;;17.70;99.90;;;;;;5020506;28;20119;-38
2023/05/11 10:15:02;;;;;;;1.40;0.70;;;17.70;99.90;;;;;;5028410;28;20641;-38
2023/05/11 10:17:32;;;;;;;1.50;0.50;;;17.80;99.90;;;;;;5034072;28;20140;-38
2023/05/11 10:19:58;;;;;;;1.38;0.60;;;17.80;99.90;;;;;;5033794;28;20049;-38
2023/05/11 10:22:25;;;;;;;1.05;0.50;;;17.90;99.90;;;;;;5031146;28;20527;-38
2023/05/11 10:24:51;;;;;;;1.30;0.52;;;18.10;99.90;;;;;;5038265;28;20049;-36
2023/05/11 10:27:20;;;;;;;2.00;0.93;;;18.10;99.90;;;;;;5032158;28;20062;-36
2023/05/11 10:29:47;;;;;;;1.30;0.70;;;18.10;99.90;;;;;;5034424;28;20405;-36
2023/05/11 10:32:15;;;;;;;1.40;0.70;;;18.20;99.90;;;;;;5027871;28;20041;-36
2023/05/11 10:34:41;;;;;;;1.75;0.68;;;18.20;99.90;;;;;;5035103;28;20113;-36
2023/05/11 10:37:08;;;;;;;2.33;0.77;;;18.20;99.90;;;;;;5037236;28;20044;-36
2023/05/11 10:39:36;;;;;;;1.27;0.60;;;18.20;99.90;;;;;;5033799;28;20088;-36
2023/05/11 10:42:40;;;;;;;1.23;0.43;;;18.20;99.90;;;;;;5029609;28;20403;-35
2023/05/11 10:45:09;;;;;;;1.60;0.77;;;18.40;99.90;;;;;;5034698;28;20568;-36
2023/05/11 10:48:06;;;;;;;2.17;0.80;;;18.40;99.90;;;;;;5030528;28;20057;-35
2023/05/11 10:51:09;;;;;;;1.73;0.65;;;18.40;99.90;;;;;;5030365;28;20530;-36
2023/05/11 10:53:35;;;;;;;1.60;0.50;;;18.40;99.90;;;;;;5029952;28;20121;-36
2023/05/11 10:56:19;;;;;;;2.33;0.60;;;18.40;99.90;;;;;;5035219;28;20140;-36
2023/05/11 10:59:22;;;;;;;1.20;0.60;;;18.30;99.90;;;;;;5032618;28;20114;-35
2023/05/11 11:01:56;;;;;;;1.77;0.40;;;18.30;99.90;;;;;;5036015;28;20049;-36
2023/05/11 11:04:22;;;;;;;0.85;0.35;;;18.20;99.90;;;;;;5035878;28;20056;-36
2023/05/11 11:07:03;;;;;;;1.40;0.52;;;18.10;99.90;;;;;;5029162;28;20049;-36
2023/05/11 11:09:48;;;;;;;1.63;0.47;;;18.10;99.90;;;;;;5023444;28;20075;-35
2023/05/11 11:12:14;;;;;;;0.88;0.40;;;18.10;99.90;;;;;;5026054;28;20561;-36
2023/05/11 11:15:07;;;;;;;0.75;0.40;;;17.90;99.90;;;;;;5019254;28;20561;-35
2023/05/11 11:17:34;;;;;;;0.73;0.40;;;17.80;99.90;;;;;;5017467;28;20135;-35
2023/05/11 11:20:03;;;;;;;1.10;0.50;;;17.80;99.90;;;;;;5023838;28;20049;-35
2023/05/11 11:22:35;;;;;;;2.30;0.63;;;17.70;99.90;;;;;;5018587;28;20164;-36
2023/05/11 11:25:05;;;;;;;0.90;0.40;;;17.70;99.90;;;;;;5028528;28;20423;-36
2023/05/11 11:27:39;;;;;;;1.92;0.45;;;17.70;99.90;;;;;;5023210;28;20737;-34
2023/05/11 11:30:22;;;;;;;0.82;0.32;;;17.70;99.90;;;;;;5031170;28;20091;-34
2023/05/11 11:32:50;;;;;;;0.88;0.43;;;17.70;99.90;;;;;;5025651;28;21085;-35
2023/05/11 11:35:38;;;;;;;0.65;0.43;;;17.60;99.90;;;;;;5020119;28;20571;-34
2023/05/11 11:38:05;;;;;;;1.48;0.40;;;17.50;99.90;;;;;;5024944;28;20058;-35
2023/05/11 11:40:42;;;;;;;0.90;0.45;;;17.50;99.90;;;;;;5024343;28;20569;-34
2023/05/11 11:43:22;;;;;;;0.88;0.30;;;17.50;99.90;;;;;;5034920;28;20572;-34
2023/05/11 11:45:54;;;;;;;1.02;0.50;;;17.50;99.90;;;;;;5022850;28;20049;-35
2023/05/11 11:48:21;;;;;;;0.85;0.40;;;17.50;99.90;;;;;;5034809;28;20061;-35
2023/05/11 11:50:48;;;;;;;1.00;0.50;;;17.60;99.90;;;;;;5026866;28;20059;-34
2023/05/11 11:53:34;;;;;;;1.33;0.63;;;17.60;99.90;;;;;;5025508;28;20117;-34
2023/05/11 11:56:00;;;;;;;1.60;0.75;;;17.70;99.90;;;;;;5013502;28;20052;-34
2023/05/11 11:58:41;;;;;;;1.60;0.68;;;17.70;99.90;;;;;;5019788;28;20057;-34
2023/05/11 12:01:10;;;;;;;1.75;0.75;;;17.70;99.90;;;;;;5031645;28;20057;-34
2023/05/11 12:03:37;;;;;;;1.65;0.85;;;17.70;99.90;;;;;;5034515;28;20562;-35
2023/05/11 12:06:08;;;;;;;1.27;0.57;;;17.80;99.90;;;;;;5031215;28;20072;-35
2023/05/11 12:08:35;;;;;;;0.88;0.50;;;17.80;99.90;;;;;;5031818;28;20048;-35
2023/05/11 12:11:02;;;;;;;0.77;0.40;;;17.80;99.90;;;;;;5039600;28;20577;-35
2023/05/11 12:13:29;;;;;;;0.93;0.40;;;17.80;99.90;;;;;;5040827;28;20411;-35
2023/05/11 12:16:11;;;;;;;0.70;0.30;;;17.80;99.90;;;;;;5021472;28;20135;-35
2023/05/11 12:18:38;;;;;;;2.72;0.70;;;17.70;99.90;;;;;;5030136;28;20080;-35
2023/05/11 12:21:03;;;;;;;1.05;0.40;;;17.60;99.90;;;;;;5022269;28;20057;-35
2023/05/11 12:23:30;;;;;;;1.23;0.40;;;17.50;99.90;;;;;;5023312;28;20052;-35
2023/05/11 12:26:07;;;;;;;0.70;0.40;;;17.50;99.90;;;;;;5035746;28;20573;-35
2023/05/11 12:28:33;;;;;;;0.70;0.40;;;17.40;99.90;;;;;;5033201;28;20053;-35
2023/05/11 12:30:58;;;;;;;0.80;0.40;;;17.40;99.90;;;;;;5038728;28;20047;-35
2023/05/11 12:33:24;;;;;;;0.73;0.32;;;17.40;99.90;;;;;;5041963;28;20418;-35
2023/05/11 12:35:54;;;;;;;1.27;0.40;;;17.40;99.90;;;;;;5038140;28;20045;-35
2023/05/11 12:38:20;;;;;;;1.25;0.43;;;17.40;99.90;;;;;;5024192;28;20557;-35
2023/05/11 12:40:50;;;;;;;3.67;0.52;;;17.50;99.90;;;;;;5022211;28;20053;-35
2023/05/11 12:43:20;;;;;;;1.60;0.40;;;17.60;99.90;;;;;;5030855;28;20102;-35
2023/05/11 12:45:46;;;;;;;0.60;0.40;;;17.80;99.90;;;;;;5039824;28;20827;-35
2023/05/11 12:48:13;;;;;;;0.95;0.40;;;18.00;99.90;;;;;;5040787;28;20096;-35
2023/05/11 12:50:44;;;;;;;0.70;0.30;;;18.20;99.90;;;;;;5037598;28;20052;-35